Atwood, Alabama
Current Conditions -  °F | °C
As of 12:56 PM on Thursday 18 Dec 2014 (Local Time) from K1M4 Reporting Station
Overcast Overcast  
Wind Chill: 44°   Ceiling: 4000
Heat Index: 44°   Visibility: 10mi
Dew Point: 33°   Wind: 0mph
Humidity: 65%   Direction: NA
Pressure: 30.2"   Gusts: NA
Location:  34.3479°N, 87.9692°W
Report Text: K1M4 181856Z AUTO 00000KT 10SM OVC040 07/01 A3020 RMK AO2 T00660005 SLP236 $
Loading
Personal Weather Stations






























Interactive Weather Map New forecast layout! Learn more

10-Day Weather Forecast

Advertisements
Track Severe Weather on mobile